Meath Environmental Platform

Observations

Time Sensor AQI SAQ Temp °C Hum % Pres Pa CO μg/m³ H₂S μg/m³ NO μg/m³ NO₂ μg/m³ O₃ μg/m³ SO₂ μg/m³ CO₂e PPM VOC PPM PM1 μg/m³ PM2.5 μg/m³ PM4 μg/m³ PM10 μg/m³ TPS µm
Thursday 13 August 2026
08:21 Trim Patrick St 1 24.2 66 38,460 0 0 1.19 7.67 32.75 6.04 6.29 11.27 12.4
08:20 Trim Patrick St 1 24.1 66 38,460 0 0 1.27 11.76 29.27 5.78 4.57 8.33 9.16
08:20 Trim Market St 2 24.7 65 56,794 0.07 0 1.29 11.63 32.91 0 1.43 3.29 4.9
08:19 Trim Patrick St 1 24 67 38,460 0 0 1.32 7.56 19.66 5.71 7.14 10.45 11.49
08:18 Trim Patrick St 1 24 66 38,460 0 0 1.18 9.64 27.42 5.68 5.43 9.75 10.73
08:18 Trim Market St 2 24.6 65 56,695 0.07 0 1.26 10.92 42.47 0 1.43 3.28 4.91
08:17 Trim Patrick St 1 23.9 67 38,460 0 0 1.22 13.12 30.64 6.56 6.29 10.43 11.47
08:16 Trim Patrick St 1 23.8 67 38,460 0 0 1.32 12.84 33.37 5.76 6.29 10.46 11.51
08:15 Trim Patrick St 1 23.8 67 38,460 0 0 1.33 8.41 17.38 5.44 6.29 10.42 11.46
08:14 Trim Patrick St 1 23.7 67 38,460 0 0 1.38 9.83 34.43 6.22 5.43 9.71 10.68
08:13 Trim Patrick St 1 23.7 68 38,460 0 0 1.4 12.88 30.84 5.89 5.43 8.93 9.82
08:13 Trim Market St 2 24.2 66 56,392 0.07 0 1.32 10.3 33.05 0 1.43 3.72 5.58
08:12 Trim Patrick St 1 23.6 67 38,460 0 0 1.34 13.18 28.6 5.81 4.57 8.96 9.85
08:11 Trim Patrick St 1 23.6 68 38,460 0 0 1.51 12.76 24.28 5.65 5.43 9.63 10.59
08:11 Trim Market St 2 24.1 66 56,258 0.05 0 1.32 9.37 32.48 0 1.43 3.71 6.23
08:10 Trim Patrick St 2 23.5 68 38,460 0 0 1.53 7.94 26.71 5.4 6.29 9.61 10.57
08:09 Trim Patrick St 1 23.5 68 38,460 0 0 1.62 4.22 31.51 5.8 6.29 9.6 10.56
08:08 Trim Patrick St 2 23.4 68 38,460 0 0 1.75 12.39 32.88 6.19 5.43 9.61 10.57
08:07 Trim Patrick St 1 23.4 68 38,460 0 0 1.72 12.5 26.4 5.53 3.71 8.14 8.96
08:06 Trim Market St 2 23.8 67 55,918 0.07 0 1.6 13.03 18.06 0 3.56 5.14 8.82